createdAt,value
2023-01-25T00:02:04.712Z,14.10
2023-01-25T00:04:33.890Z,13.90
2023-01-25T00:07:03.287Z,15.40
2023-01-25T00:09:31.875Z,15.00
2023-01-25T00:12:02.199Z,11.80
2023-01-25T00:14:32.011Z,11.70
2023-01-25T00:17:00.650Z,12.20
2023-01-25T00:19:30.198Z,10.30
2023-01-25T00:21:59.406Z,13.00
2023-01-25T00:24:29.416Z,13.90
2023-01-25T00:26:58.722Z,14.60
2023-01-25T00:29:27.608Z,14.70
2023-01-25T00:32:10.411Z,12.80
2023-01-25T00:34:49.454Z,12.00
2023-01-25T00:37:21.927Z,12.40
2023-01-25T00:39:50.818Z,13.80
2023-01-25T00:42:20.243Z,14.00
2023-01-25T00:44:49.655Z,13.90
2023-01-25T00:47:18.098Z,12.80
2023-01-25T00:49:47.119Z,13.20
2023-01-25T00:52:16.085Z,10.60
2023-01-25T00:54:46.625Z,10.60
2023-01-25T00:57:15.745Z,11.60
2023-01-25T00:59:44.935Z,12.50
2023-01-25T01:02:15.741Z,12.80
2023-01-25T01:04:44.556Z,13.70
2023-01-25T01:07:14.775Z,11.90
2023-01-25T01:09:43.443Z,12.50
2023-01-25T01:12:12.431Z,12.10
2023-01-25T01:14:41.268Z,11.20
2023-01-25T01:17:09.917Z,10.50
2023-01-25T01:19:38.893Z,11.40
2023-01-25T01:22:07.685Z,13.10
2023-01-25T01:24:36.991Z,12.60
2023-01-25T01:27:05.567Z,11.90
2023-01-25T01:29:34.727Z,12.20
2023-01-25T01:32:04.265Z,10.80
2023-01-25T01:34:33.359Z,8.10
2023-01-25T01:37:02.149Z,10.40
2023-01-25T01:39:31.177Z,11.20
2023-01-25T01:41:59.943Z,11.20
2023-01-25T01:44:46.951Z,12.00
2023-01-25T01:47:32.948Z,11.80
2023-01-25T01:50:06.131Z,11.80
2023-01-25T01:52:36.766Z,11.10
2023-01-25T02:00:07.634Z,11.10
2023-01-25T02:02:43.114Z,11.30
2023-01-25T02:05:17.652Z,11.50
2023-01-25T02:07:47.614Z,11.60
2023-01-25T02:10:16.297Z,12.20
2023-01-25T02:12:46.110Z,11.30
2023-01-25T02:15:14.940Z,9.20
2023-01-25T02:17:44.201Z,10.80
2023-01-25T02:20:22.303Z,11.50
2023-01-25T02:23:01.100Z,12.20
2023-01-25T02:25:29.920Z,11.60
2023-01-25T02:28:05.248Z,12.10
2023-01-25T02:30:35.901Z,12.10
2023-01-25T02:33:04.684Z,10.70
2023-01-25T02:35:52.194Z,10.80
2023-01-25T02:38:21.607Z,11.00
2023-01-25T02:41:02.713Z,11.60
2023-01-25T02:43:32.837Z,11.20
2023-01-25T02:46:23.841Z,10.80
2023-01-25T02:48:52.400Z,11.80
2023-01-25T02:51:25.195Z,11.10
2023-01-25T02:53:54.062Z,10.40
2023-01-25T02:56:23.062Z,10.60
2023-01-25T02:58:51.851Z,12.30
2023-01-25T03:01:21.154Z,11.30
2023-01-25T03:03:50.041Z,11.20
2023-01-25T03:06:19.031Z,12.20
2023-01-25T03:08:48.022Z,10.80
2023-01-25T03:11:16.512Z,10.20
2023-01-25T03:13:49.391Z,10.60
2023-01-25T03:16:18.034Z,9.90
2023-01-25T03:18:47.023Z,11.30
2023-01-25T03:21:17.815Z,11.60
2023-01-25T03:23:47.785Z,11.80
2023-01-25T03:26:21.966Z,10.90
2023-01-25T03:29:03.717Z,10.50
2023-01-25T03:31:33.089Z,10.30
2023-01-25T03:34:02.525Z,10.00
2023-01-25T03:36:35.611Z,10.50
2023-01-25T03:39:05.122Z,10.50
2023-01-25T03:41:39.333Z,10.60
2023-01-25T03:44:11.813Z,9.60
2023-01-25T03:49:09.916Z,9.20
2023-01-25T03:51:38.589Z,9.50
2023-01-25T03:54:10.479Z,10.00
2023-01-25T03:59:12.549Z,9.70
2023-01-25T04:04:09.908Z,10.80
2023-01-25T04:06:40.022Z,10.20
2023-01-25T04:09:08.804Z,10.90
2023-01-25T04:11:41.581Z,9.90
2023-01-25T04:16:47.949Z,9.50
2023-01-25T04:19:39.689Z,9.40
2023-01-25T04:22:13.201Z,8.40
2023-01-25T04:24:41.876Z,8.80
2023-01-25T04:27:10.504Z,11.30
2023-01-25T04:29:47.953Z,10.20
2023-01-25T04:32:20.128Z,10.30
2023-01-25T04:34:49.007Z,12.20
2023-01-25T04:37:19.533Z,11.80
2023-01-25T04:40:09.419Z,9.70
2023-01-25T04:42:42.713Z,10.40
2023-01-25T04:45:12.083Z,10.80
2023-01-25T04:47:40.607Z,12.10
2023-01-25T04:50:10.305Z,12.40
2023-01-25T04:52:39.323Z,10.60
2023-01-25T04:55:09.066Z,17.30
2023-01-25T04:57:41.993Z,14.30
2023-01-25T05:00:12.012Z,13.90
2023-01-25T05:02:40.611Z,16.30
2023-01-25T05:05:10.136Z,15.00
2023-01-25T05:07:39.294Z,11.30
2023-01-25T05:10:09.005Z,13.90
2023-01-25T05:12:41.888Z,14.30
2023-01-25T05:15:11.719Z,14.50
2023-01-25T05:17:40.719Z,12.80
2023-01-25T05:20:11.231Z,15.80
2023-01-25T05:23:36.738Z,15.60
2023-01-25T05:26:42.696Z,15.30
2023-01-25T05:29:11.906Z,14.70
2023-01-25T05:31:47.570Z,14.30
2023-01-25T05:34:16.434Z,13.70
2023-01-25T05:36:44.913Z,13.90
2023-01-25T05:39:13.701Z,14.70
2023-01-25T05:41:42.439Z,14.20
2023-01-25T05:44:11.484Z,14.00
2023-01-25T05:46:43.958Z,12.90
2023-01-25T05:49:12.745Z,11.20
2023-01-25T05:51:41.844Z,13.70
2023-01-25T05:54:16.160Z,13.40
2023-01-25T05:56:50.683Z,13.60
2023-01-25T05:59:20.185Z,14.20
2023-01-25T06:01:49.075Z,13.80
2023-01-25T06:04:18.613Z,13.70
2023-01-25T06:06:47.776Z,13.10
2023-01-25T06:09:16.468Z,13.90
2023-01-25T06:11:47.321Z,13.00
2023-01-25T06:14:16.108Z,13.90
2023-01-25T06:16:44.982Z,13.40
2023-01-25T06:19:25.953Z,14.30
2023-01-25T06:22:33.035Z,13.00
2023-01-25T06:25:01.639Z,14.50
2023-01-25T06:27:30.451Z,13.50
2023-01-25T06:29:59.542Z,13.90
2023-01-25T06:32:32.739Z,14.20
2023-01-25T06:35:01.485Z,11.90
2023-01-25T06:37:30.374Z,12.70
2023-01-25T06:39:58.975Z,10.60
2023-01-25T06:42:27.641Z,10.40
2023-01-25T06:44:56.223Z,11.10
2023-01-25T06:47:25.121Z,10.70
2023-01-25T06:49:53.698Z,10.50
2023-01-25T06:52:22.693Z,10.40
2023-01-25T06:54:51.285Z,9.70
2023-01-25T06:57:21.188Z,11.70
2023-01-25T07:02:20.544Z,11.10
2023-01-25T07:04:54.722Z,12.90
2023-01-25T07:07:23.403Z,12.00
2023-01-25T07:09:51.889Z,11.90
2023-01-25T07:12:20.776Z,12.00
2023-01-25T07:14:50.084Z,11.60
2023-01-25T07:17:19.583Z,12.50
2023-01-25T07:19:48.486Z,13.50
2023-01-25T07:22:18.285Z,14.40
2023-01-25T07:24:51.119Z,13.50
2023-01-25T07:27:20.572Z,13.00
2023-01-25T07:29:49.581Z,13.50
2023-01-25T07:32:18.785Z,12.80
2023-01-25T07:34:47.450Z,12.80
2023-01-25T07:37:16.809Z,12.10
2023-01-25T07:39:49.975Z,12.20
2023-01-25T07:42:18.944Z,10.00
2023-01-25T07:45:09.317Z,11.10
2023-01-25T07:47:38.224Z,10.80
2023-01-25T07:50:10.146Z,10.80
2023-01-25T07:52:38.871Z,10.60
2023-01-25T07:55:09.207Z,11.90
2023-01-25T07:57:37.903Z,11.90
2023-01-25T08:00:10.252Z,11.70
2023-01-25T08:02:43.133Z,11.60
2023-01-25T08:05:12.073Z,11.20
2023-01-25T08:07:41.117Z,11.10
2023-01-25T08:10:13.090Z,10.90
2023-01-25T08:12:46.587Z,12.60
2023-01-25T08:15:17.109Z,11.30
2023-01-25T08:17:45.825Z,12.70
2023-01-25T08:20:14.887Z,10.70
2023-01-25T08:22:47.078Z,11.80
2023-01-25T08:25:16.258Z,11.80
2023-01-25T08:27:48.625Z,10.90
2023-01-25T08:30:19.465Z,11.60
2023-01-25T08:32:48.349Z,10.20
2023-01-25T08:35:20.340Z,9.80
2023-01-25T08:37:49.522Z,11.20
2023-01-25T08:40:19.528Z,11.90
2023-01-25T08:42:49.361Z,11.20
2023-01-25T08:47:48.867Z,10.50
2023-01-25T08:50:18.487Z,10.00
2023-01-25T08:52:47.768Z,10.50
2023-01-25T08:55:16.967Z,10.70
2023-01-25T08:57:49.595Z,11.10
2023-01-25T09:00:20.585Z,10.10
2023-01-25T09:02:49.783Z,11.70
2023-01-25T09:05:18.591Z,9.40
2023-01-25T09:07:48.466Z,10.90
2023-01-25T09:12:47.290Z,9.30
2023-01-25T09:15:18.535Z,9.20
2023-01-25T09:17:48.046Z,9.90
2023-01-25T09:20:19.081Z,10.40
2023-01-25T09:22:47.973Z,10.30
2023-01-25T09:25:16.867Z,10.30
2023-01-25T09:27:45.672Z,8.80
2023-01-25T09:30:23.477Z,8.80
2023-01-25T09:33:01.468Z,9.20
2023-01-25T09:35:31.578Z,9.60
2023-01-25T09:38:00.061Z,10.10
2023-01-25T09:40:34.372Z,10.00
2023-01-25T09:43:22.061Z,9.00
2023-01-25T09:45:51.505Z,8.90
2023-01-25T09:48:29.203Z,9.00
2023-01-25T09:51:23.759Z,9.30
2023-01-25T09:53:53.692Z,9.10
2023-01-25T09:56:33.360Z,10.10
2023-01-25T09:59:12.902Z,9.60
2023-01-25T10:01:51.961Z,9.90
2023-01-25T14:12:46.643Z,6.40
2023-01-25T14:15:29.411Z,7.30
2023-01-25T14:18:20.501Z,7.00
2023-01-25T14:20:50.693Z,7.30
2023-01-25T14:23:26.094Z,6.40
2023-01-25T14:25:59.450Z,9.20
2023-01-25T14:28:29.612Z,10.20
2023-01-25T14:33:32.801Z,6.90
2023-01-25T14:36:24.001Z,6.20
2023-01-25T14:38:54.195Z,6.50
2023-01-25T14:41:26.080Z,6.10
2023-01-25T14:43:56.588Z,5.00
2023-01-25T14:46:32.201Z,4.10
2023-01-25T14:49:27.656Z,4.60
2023-01-25T14:52:05.887Z,4.20
2023-01-25T14:54:36.733Z,4.10
2023-01-25T14:57:07.219Z,4.50
2023-01-25T14:59:42.718Z,3.90
2023-01-25T15:02:28.475Z,4.70
2023-01-25T15:05:21.825Z,6.70
2023-01-25T15:08:26.354Z,8.10
2023-01-25T15:10:57.908Z,7.60
2023-01-25T15:13:27.605Z,8.60
2023-01-25T15:16:01.713Z,8.30
2023-01-25T15:18:43.403Z,8.10
2023-01-25T15:21:14.267Z,7.60
2023-01-25T15:23:45.306Z,8.20
2023-01-25T15:26:29.972Z,8.30
2023-01-25T15:29:00.889Z,13.20
2023-01-25T15:31:34.855Z,12.80
2023-01-25T15:34:06.329Z,13.90
2023-01-25T15:36:37.383Z,13.30
2023-01-25T15:41:37.002Z,12.90
2023-01-25T15:44:06.006Z,6.80
2023-01-25T15:46:35.016Z,5.80
2023-01-25T15:49:08.010Z,5.20
2023-01-25T15:51:37.801Z,5.80
2023-01-25T15:54:08.120Z,11.60
2023-01-25T15:56:38.254Z,9.00
2023-01-25T15:59:11.842Z,9.40
2023-01-25T16:01:40.628Z,9.70
2023-01-25T16:04:18.367Z,10.50
2023-01-25T16:06:50.331Z,13.80
2023-01-25T16:09:29.722Z,15.40
2023-01-25T16:12:00.354Z,13.60
2023-01-25T16:14:33.125Z,11.80
2023-01-25T16:17:04.436Z,11.10
2023-01-25T16:19:33.660Z,11.30
2023-01-25T16:22:06.657Z,11.40
2023-01-25T16:24:39.398Z,11.20
2023-01-25T16:27:17.142Z,12.90
2023-01-25T16:29:46.047Z,11.00
2023-01-25T16:32:15.033Z,11.50
2023-01-25T16:34:44.395Z,11.30
2023-01-25T16:37:17.238Z,7.50
2023-01-25T16:39:46.402Z,10.60
2023-01-25T16:42:16.941Z,11.00
2023-01-25T16:44:47.696Z,10.70
2023-01-25T16:47:16.352Z,10.00
2023-01-25T16:49:45.960Z,11.80
2023-01-25T16:52:15.666Z,11.80
2023-01-25T16:54:45.406Z,12.90
2023-01-25T16:57:20.242Z,14.20
2023-01-25T16:59:49.511Z,13.90
2023-01-25T17:02:19.735Z,12.70
2023-01-25T17:04:51.852Z,14.10
2023-01-25T17:07:21.097Z,14.40
2023-01-25T17:09:50.494Z,40.90
2023-01-25T17:12:28.762Z,21.10
2023-01-25T17:15:12.656Z,33.00
2023-01-25T17:17:42.068Z,14.00
2023-01-25T17:20:12.262Z,13.70
2023-01-25T17:22:42.298Z,14.50
2023-01-25T17:25:11.473Z,12.00
2023-01-25T17:27:43.251Z,11.10
2023-01-25T17:30:13.925Z,13.70
2023-01-25T17:32:46.962Z,12.10
2023-01-25T17:35:19.035Z,13.00
2023-01-25T17:37:47.807Z,14.00
2023-01-25T17:40:18.548Z,13.00
2023-01-25T17:42:47.548Z,12.60
2023-01-25T17:45:17.768Z,11.70
2023-01-25T17:47:50.219Z,13.50
2023-01-25T17:50:20.061Z,13.10
2023-01-25T17:52:51.419Z,13.50
2023-01-25T17:55:20.444Z,14.20
2023-01-25T17:57:51.665Z,13.20
2023-01-25T18:00:21.756Z,14.30
2023-01-25T18:02:52.144Z,13.80
2023-01-25T18:07:51.552Z,16.40
2023-01-25T18:10:20.459Z,14.70
2023-01-25T18:13:03.982Z,18.70
2023-01-25T18:15:36.293Z,18.20
2023-01-25T18:18:07.455Z,18.70
2023-01-25T18:20:38.486Z,18.60
2023-01-25T18:23:07.493Z,18.70
2023-01-25T18:25:38.114Z,17.90
2023-01-25T18:28:07.712Z,24.50
2023-01-25T18:30:44.496Z,20.20
2023-01-25T18:33:13.288Z,25.40
2023-01-25T18:35:46.421Z,25.50
2023-01-25T18:38:15.890Z,24.30
2023-01-25T18:40:44.611Z,23.90
2023-01-25T18:43:17.128Z,24.90
2023-01-25T18:45:46.641Z,25.80
2023-01-25T18:48:20.144Z,27.10
2023-01-25T18:50:49.047Z,28.50
2023-01-25T18:53:18.037Z,26.70
2023-01-25T18:56:05.644Z,28.20
2023-01-25T19:01:20.187Z,31.60
2023-01-25T19:03:50.338Z,25.20
2023-01-25T19:06:20.984Z,24.90
2023-01-25T19:08:54.882Z,27.90
2023-01-25T19:11:23.875Z,24.20
2023-01-25T19:13:54.809Z,20.50
2023-01-25T19:16:26.431Z,19.10
2023-01-25T19:18:55.847Z,20.50
2023-01-25T19:21:27.563Z,42.90
2023-01-25T19:23:57.947Z,23.80
2023-01-25T19:26:27.760Z,21.80
2023-01-25T19:28:56.901Z,19.60
2023-01-25T19:31:27.915Z,17.80
2023-01-25T19:34:01.079Z,16.70
2023-01-25T19:36:33.880Z,19.30
2023-01-25T19:39:03.427Z,17.60
2023-01-25T19:41:34.314Z,17.20
2023-01-25T19:44:05.163Z,17.10
2023-01-25T19:46:36.195Z,16.70
2023-01-25T19:49:09.616Z,15.90
2023-01-25T19:51:43.172Z,16.00
2023-01-25T19:54:18.698Z,17.70
2023-01-25T19:56:49.599Z,18.10
2023-01-25T19:59:23.639Z,16.70
2023-01-25T20:01:53.886Z,18.40
2023-01-25T20:04:23.712Z,17.20
2023-01-25T20:06:52.926Z,17.00
2023-01-25T20:09:25.192Z,18.00
2023-01-25T20:11:55.892Z,18.80
2023-01-25T20:14:25.635Z,18.00
2023-01-25T20:16:54.522Z,21.80
2023-01-25T20:19:24.889Z,25.70
2023-01-25T20:21:53.523Z,23.70
2023-01-25T20:26:52.895Z,24.30
2023-01-25T20:29:22.555Z,24.90
2023-01-25T20:31:53.907Z,25.10
2023-01-25T20:34:23.210Z,25.40
2023-01-25T20:36:51.988Z,27.60
2023-01-25T20:39:21.589Z,26.50
2023-01-25T20:41:53.823Z,26.20
2023-01-25T20:44:23.365Z,29.70
2023-01-25T20:46:55.425Z,29.30
2023-01-25T20:49:24.075Z,30.10
2023-01-25T20:51:52.808Z,28.90
2023-01-25T20:54:23.269Z,27.10
2023-01-25T20:56:53.766Z,28.00
2023-01-25T20:59:22.369Z,30.00
2023-01-25T21:09:43.913Z,32.00
2023-01-25T21:12:12.497Z,31.50
2023-01-25T21:14:41.506Z,35.90
2023-01-25T21:17:11.709Z,35.90
2023-01-25T21:19:40.190Z,36.00
2023-01-25T21:22:08.867Z,36.50
2023-01-25T21:24:38.217Z,32.20
2023-01-25T21:27:08.435Z,33.20
2023-01-25T21:29:37.239Z,36.80
2023-01-25T21:32:06.403Z,36.50
2023-01-25T21:34:35.497Z,37.40
2023-01-25T21:37:04.073Z,40.40
2023-01-25T21:39:35.440Z,44.60
2023-01-25T21:42:04.652Z,40.60
2023-01-25T21:44:52.041Z,39.30
2023-01-25T21:47:29.986Z,43.70
2023-01-25T21:50:18.811Z,41.70
2023-01-25T21:52:47.478Z,45.00
2023-01-25T21:55:16.059Z,46.10
2023-01-25T21:57:47.511Z,43.40
2023-01-25T22:00:17.192Z,41.80
2023-01-25T22:02:46.151Z,46.50
2023-01-25T22:05:15.002Z,47.90
2023-01-25T22:07:43.945Z,49.30
2023-01-25T22:10:12.818Z,47.50
2023-01-25T22:12:42.238Z,44.40
2023-01-25T22:15:12.198Z,41.50
2023-01-25T22:17:41.396Z,43.20
2023-01-25T22:20:11.358Z,45.40
2023-01-25T22:22:40.117Z,44.30
2023-01-25T22:25:09.504Z,44.10
2023-01-25T22:27:46.199Z,41.40
2023-01-25T22:30:14.860Z,38.50
2023-01-25T22:32:46.399Z,41.80
2023-01-25T22:35:17.440Z,42.60
2023-01-25T22:40:14.839Z,42.40
2023-01-25T22:42:44.596Z,41.40
2023-01-25T22:45:13.645Z,41.00
2023-01-25T22:47:47.028Z,43.70
2023-01-25T22:50:19.515Z,44.60
2023-01-25T22:52:49.341Z,43.80
2023-01-25T22:55:18.109Z,42.40
2023-01-25T22:57:48.624Z,39.70
2023-01-25T23:00:20.804Z,39.50
2023-01-25T23:02:51.438Z,40.90
2023-01-25T23:05:20.428Z,43.30
2023-01-25T23:07:49.104Z,42.90
2023-01-25T23:10:22.396Z,43.10
2023-01-25T23:15:21.714Z,40.10
2023-01-25T23:18:09.396Z,41.60
2023-01-25T23:20:38.275Z,39.90
2023-01-25T23:23:07.160Z,39.60
2023-01-25T23:25:37.652Z,40.40
2023-01-25T23:28:07.285Z,36.10
2023-01-25T23:30:36.359Z,35.20
2023-01-25T23:33:05.051Z,39.60
2023-01-25T23:35:34.346Z,44.70
2023-01-25T23:38:03.332Z,37.60
2023-01-25T23:40:33.208Z,39.10
2023-01-25T23:45:35.333Z,31.80
2023-01-25T23:48:05.174Z,27.40
2023-01-25T23:50:36.193Z,34.50
2023-01-25T23:55:37.545Z,30.30
2023-01-25T23:58:06.847Z,30.30
